Time;durP1;ratioP1;P1;durP2;ratioP2;P2;SDS_P1;SDS_P2;PMS_P1;PMS_P2;Temp;Humidity;BMP_temperature;BMP_pressure;BME280_temperature;BME280_humidity;BME280_pressure;Samples;Min_cycle;Max_cycle;Signal;HPM_P1;HPM_P2
2021/05/22 00:00:11;;;;;;;10.90;1.55;;;;;;;;;;4973671;28;20094;-62
2021/05/22 00:02:56;;;;;;;9.38;1.83;;;;;;;;;;4984595;28;20046;-63
2021/05/22 00:05:42;;;;;;;9.25;1.45;;;;;;;;;;4993001;28;20051;-63
2021/05/22 00:08:27;;;;;;;6.80;1.33;;;;;;;;;;4993017;28;20042;-63
2021/05/22 00:11:13;;;;;;;13.80;2.65;;;;;;;;;;4987979;28;20053;-63
2021/05/22 00:13:58;;;;;;;6.32;1.42;;;;;;;;;;4974779;28;20046;-64
2021/05/22 00:16:44;;;;;;;6.65;1.58;;;;;;;;;;4973937;28;20133;-62
2021/05/22 00:19:29;;;;;;;9.27;1.45;;;;;;;;;;4973327;28;20047;-63
2021/05/22 00:22:14;;;;;;;9.80;1.92;;;;;;;;;;4983195;28;20113;-63
2021/05/22 00:25:00;;;;;;;8.43;1.35;;;;;;;;;;4992658;28;20046;-62
2021/05/22 00:27:45;;;;;;;9.25;1.90;;;;;;;;;;4992791;28;20049;-63
2021/05/22 00:30:31;;;;;;;9.13;1.77;;;;;;;;;;4992610;28;20050;-63
2021/05/22 00:33:16;;;;;;;9.57;1.75;;;;;;;;;;4978058;28;20413;-63
2021/05/22 00:36:02;;;;;;;6.90;1.50;;;;;;;;;;4973450;28;20061;-64
2021/05/22 00:38:47;;;;;;;13.00;1.85;;;;;;;;;;4973261;28;20054;-63
2021/05/22 00:41:32;;;;;;;7.65;1.48;;;;;;;;;;4973044;28;20090;-63
2021/05/22 00:44:18;;;;;;;12.48;2.72;;;;;;;;;;4973077;28;20457;-63
2021/05/22 00:47:03;;;;;;;7.90;1.60;;;;;;;;;;4973227;28;20054;-62
2021/05/22 00:49:49;;;;;;;6.68;1.50;;;;;;;;;;4973124;28;20133;-63
2021/05/22 00:52:34;;;;;;;10.82;1.60;;;;;;;;;;4977389;28;20042;-63
2021/05/22 00:55:20;;;;;;;16.08;2.55;;;;;;;;;;4992513;28;20472;-63
2021/05/22 00:58:05;;;;;;;5.47;1.38;;;;;;;;;;4992403;28;20085;-63
2021/05/22 01:00:51;;;;;;;7.00;1.65;;;;;;;;;;4992354;28;20054;-63
2021/05/22 01:03:39;;;;;;;10.00;1.85;;;;;;;;;;4982608;28;20490;-63
2021/05/22 01:06:25;;;;;;;12.05;1.98;;;;;;;;;;4972781;28;20074;-63
2021/05/22 01:09:11;;;;;;;11.57;1.90;;;;;;;;;;4976800;28;20077;-63
2021/05/22 01:11:57;;;;;;;7.90;2.47;;;;;;;;;;4976910;28;20043;-63
2021/05/22 01:14:42;;;;;;;8.05;1.77;;;;;;;;;;4992306;28;20050;-63
2021/05/22 01:17:28;;;;;;;7.78;2.10;;;;;;;;;;4996438;28;20054;-63
2021/05/22 01:20:32;;;;;;;16.52;2.42;;;;;;;;;;4995919;28;20141;-63
2021/05/22 01:23:21;;;;;;;6.97;1.50;;;;;;;;;;4994129;28;20046;-63
2021/05/22 01:26:06;;;;;;;7.93;1.58;;;;;;;;;;4962284;28;20043;-63
2021/05/22 01:28:52;;;;;;;8.65;1.70;;;;;;;;;;4976543;28;20058;-63
2021/05/22 01:31:38;;;;;;;11.98;1.90;;;;;;;;;;4962218;28;20433;-63
2021/05/22 01:34:23;;;;;;;6.90;1.42;;;;;;;;;;4983730;28;20378;-63
2021/05/22 01:37:08;;;;;;;6.55;1.20;;;;;;;;;;4995654;28;20054;-62
2021/05/22 01:39:54;;;;;;;7.97;2.00;;;;;;;;;;4995713;28;20061;-63
2021/05/22 01:42:39;;;;;;;5.68;1.30;;;;;;;;;;4995758;28;20049;-63
2021/05/22 01:45:28;;;;;;;7.95;1.35;;;;;;;;;;4967938;28;20049;-63
2021/05/22 01:48:20;;;;;;;5.05;1.20;;;;;;;;;;4976211;28;20046;-62
2021/05/22 01:51:06;;;;;;;5.90;1.17;;;;;;;;;;4975998;28;20158;-62
2021/05/22 01:53:52;;;;;;;7.55;1.33;;;;;;;;;;4976120;28;20102;-63
2021/05/22 01:56:37;;;;;;;9.32;1.52;;;;;;;;;;4980265;28;20078;-63
2021/05/22 01:59:22;;;;;;;6.70;2.15;;;;;;;;;;4995431;28;20081;-63
2021/05/22 02:02:07;;;;;;;6.22;1.27;;;;;;;;;;4995354;28;20101;-63
2021/05/22 02:04:53;;;;;;;5.15;1.08;;;;;;;;;;4991048;28;20125;-63
2021/05/22 02:07:38;;;;;;;5.13;1.58;;;;;;;;;;4960406;28;20501;-64
2021/05/22 02:10:24;;;;;;;4.70;1.02;;;;;;;;;;4961127;28;20058;-63
2021/05/22 02:13:09;;;;;;;6.78;1.33;;;;;;;;;;4961209;28;20094;-63
2021/05/22 02:15:55;;;;;;;6.18;1.15;;;;;;;;;;4983920;28;20186;-63
2021/05/22 02:18:41;;;;;;;6.97;1.83;;;;;;;;;;4994932;28;20055;-63
2021/05/22 02:21:27;;;;;;;3.88;1.00;;;;;;;;;;4980133;28;20051;-63
2021/05/22 02:24:13;;;;;;;7.57;1.40;;;;;;;;;;4994865;28;20197;-64
2021/05/22 02:26:59;;;;;;;4.05;1.20;;;;;;;;;;4980574;28;20050;-62
2021/05/22 02:29:45;;;;;;;5.15;1.00;;;;;;;;;;4975337;28;20047;-63
2021/05/22 02:32:30;;;;;;;9.77;1.40;;;;;;;;;;4980434;28;20061;-63
2021/05/22 02:35:17;;;;;;;7.63;1.27;;;;;;;;;;4980050;28;20538;-63
2021/05/22 02:38:02;;;;;;;5.80;1.13;;;;;;;;;;4980047;28;20050;-63
2021/05/22 02:40:48;;;;;;;5.15;1.33;;;;;;;;;;4966427;28;20524;-63
2021/05/22 02:43:33;;;;;;;7.53;1.52;;;;;;;;;;4994708;28;20050;-63
2021/05/22 02:46:18;;;;;;;8.02;2.05;;;;;;;;;;4976390;28;20051;-63
2021/05/22 02:49:04;;;;;;;5.30;1.70;;;;;;;;;;4960659;28;20078;-62
2021/05/22 02:51:49;;;;;;;8.48;1.60;;;;;;;;;;4960416;28;20497;-63
2021/05/22 02:54:39;;;;;;;4.43;1.27;;;;;;;;;;4960389;28;20416;-63
2021/05/22 02:57:24;;;;;;;10.73;1.80;;;;;;;;;;4962387;28;20050;-63
2021/05/22 03:00:10;;;;;;;5.43;1.15;;;;;;;;;;4961308;28;20100;-62
2021/05/22 03:02:55;;;;;;;5.80;1.30;;;;;;;;;;4975797;28;20129;-63
2021/05/22 03:05:41;;;;;;;7.07;1.20;;;;;;;;;;4974784;28;20602;-62
2021/05/22 03:08:26;;;;;;;5.15;0.90;;;;;;;;;;4976011;28;20043;-63
2021/05/22 03:11:12;;;;;;;7.95;1.23;;;;;;;;;;4960076;28;20058;-63
2021/05/22 03:13:57;;;;;;;5.63;1.10;;;;;;;;;;4974950;28;20050;-63
2021/05/22 03:16:42;;;;;;;10.55;1.95;;;;;;;;;;4984897;28;20046;-62
2021/05/22 03:19:28;;;;;;;9.98;1.83;;;;;;;;;;4993653;28;20046;-63
2021/05/22 03:22:13;;;;;;;5.68;1.10;;;;;;;;;;4994057;28;20047;-63
2021/05/22 03:24:59;;;;;;;6.40;1.38;;;;;;;;;;4993699;28;20046;-62
2021/05/22 03:27:44;;;;;;;7.68;1.50;;;;;;;;;;4992221;28;20133;-63
2021/05/22 03:30:30;;;;;;;8.05;1.52;;;;;;;;;;4991236;28;20512;-63
2021/05/22 03:33:16;;;;;;;7.65;1.73;;;;;;;;;;4993718;28;20057;-62
2021/05/22 03:36:01;;;;;;;6.85;1.55;;;;;;;;;;4994009;28;20058;-63
2021/05/22 03:38:46;;;;;;;6.10;1.60;;;;;;;;;;4993630;28;20051;-63
2021/05/22 03:41:32;;;;;;;4.38;0.88;;;;;;;;;;4993501;28;20043;-63
2021/05/22 03:44:17;;;;;;;7.00;1.27;;;;;;;;;;4991924;28;20043;-63
2021/05/22 03:47:03;;;;;;;3.22;1.58;;;;;;;;;;4993624;28;20114;-63
2021/05/22 03:49:48;;;;;;;8.57;2.45;;;;;;;;;;4993248;28;20050;-63
2021/05/22 03:52:33;;;;;;;7.07;1.73;;;;;;;;;;4993521;28;20050;-64
2021/05/22 03:55:20;;;;;;;3.65;1.30;;;;;;;;;;4991813;28;20058;-63
2021/05/22 03:58:07;;;;;;;9.68;2.47;;;;;;;;;;4993396;28;20050;-63
2021/05/22 04:00:52;;;;;;;5.70;1.52;;;;;;;;;;4991618;28;20050;-64
2021/05/22 04:03:38;;;;;;;8.73;1.70;;;;;;;;;;4993223;28;20051;-64
2021/05/22 04:06:23;;;;;;;6.65;2.05;;;;;;;;;;4963961;28;20078;-63
2021/05/22 04:09:08;;;;;;;10.82;2.25;;;;;;;;;;4973794;28;20413;-64
2021/05/22 04:11:54;;;;;;;3.60;1.48;;;;;;;;;;4973669;28;20417;-63
2021/05/22 04:14:39;;;;;;;9.68;1.83;;;;;;;;;;4973510;28;20113;-63
2021/05/22 04:17:24;;;;;;;11.80;2.17;;;;;;;;;;4993038;28;20301;-63
2021/05/22 04:20:10;;;;;;;3.85;2.05;;;;;;;;;;4992509;28;20051;-63
2021/05/22 04:22:56;;;;;;;7.72;2.35;;;;;;;;;;4992991;28;20051;-63
2021/05/22 04:25:41;;;;;;;6.57;2.08;;;;;;;;;;5001776;28;20046;-63
2021/05/22 04:28:26;;;;;;;5.00;1.50;;;;;;;;;;4988142;28;20045;-63
2021/05/22 04:31:12;;;;;;;7.88;2.28;;;;;;;;;;4992552;28;20408;-63
2021/05/22 04:33:58;;;;;;;7.82;1.88;;;;;;;;;;4992703;28;20050;-63
2021/05/22 04:36:43;;;;;;;6.63;2.00;;;;;;;;;;4983783;28;20451;-63
2021/05/22 04:39:28;;;;;;;5.57;2.15;;;;;;;;;;4973264;28;20082;-63
2021/05/22 04:42:14;;;;;;;5.15;1.80;;;;;;;;;;4972489;28;20047;-63
2021/05/22 04:44:59;;;;;;;5.55;1.73;;;;;;;;;;4972994;28;20065;-62
2021/05/22 04:47:44;;;;;;;5.88;1.70;;;;;;;;;;4973425;28;20126;-63
2021/05/22 04:50:32;;;;;;;7.07;1.92;;;;;;;;;;4973030;28;20058;-63
2021/05/22 04:53:18;;;;;;;4.88;2.00;;;;;;;;;;4973095;28;20097;-63
2021/05/22 04:56:04;;;;;;;5.75;1.90;;;;;;;;;;4973181;28;20065;-63
2021/05/22 04:58:49;;;;;;;3.70;2.10;;;;;;;;;;4973529;28;20078;-64
2021/05/22 05:01:35;;;;;;;7.07;2.38;;;;;;;;;;4975110;28;20050;-63
2021/05/22 05:04:20;;;;;;;5.32;2.38;;;;;;;;;;4980672;28;20050;-64
2021/05/22 05:07:06;;;;;;;11.23;2.45;;;;;;;;;;4973831;28;20054;-63
2021/05/22 05:09:51;;;;;;;8.30;2.38;;;;;;;;;;4962990;28;20133;-63
2021/05/22 05:12:37;;;;;;;5.80;2.28;;;;;;;;;;4973244;28;20134;-63
2021/05/22 05:15:22;;;;;;;4.60;1.85;;;;;;;;;;4958468;28;20484;-63
2021/05/22 05:18:07;;;;;;;6.65;2.83;;;;;;;;;;4975805;28;20058;-62
2021/05/22 05:20:52;;;;;;;5.63;1.92;;;;;;;;;;4992154;28;20038;-62
2021/05/22 05:23:38;;;;;;;6.45;2.00;;;;;;;;;;4992465;28;20141;-62
2021/05/22 05:26:23;;;;;;;3.42;1.88;;;;;;;;;;5044544;23;20061;-62
2021/05/22 05:29:08;;;;;;;5.28;2.58;;;;;;;;;;5020095;28;20100;-63
2021/05/22 05:31:54;;;;;;;4.20;1.77;;;;;;;;;;5031592;28;20080;-63
2021/05/22 05:34:43;;;;;;;6.65;2.05;;;;;;;;;;5031478;28;20513;-63
2021/05/22 05:37:28;;;;;;;6.88;1.95;;;;;;;;;;5031662;28;20053;-63
2021/05/22 05:40:14;;;;;;;6.88;1.85;;;;;;;;;;5016568;28;20046;-62
2021/05/22 05:43:02;;;;;;;3.88;2.03;;;;;;;;;;5011778;28;20050;-63
2021/05/22 05:45:48;;;;;;;6.30;1.70;;;;;;;;;;5011764;28;20060;-63
2021/05/22 05:48:33;;;;;;;4.65;1.88;;;;;;;;;;5011837;28;20061;-63
2021/05/22 05:51:19;;;;;;;6.35;1.77;;;;;;;;;;4991915;28;20498;-63
2021/05/22 05:54:05;;;;;;;4.28;1.77;;;;;;;;;;4997577;28;20039;-63
2021/05/22 05:56:50;;;;;;;7.50;2.05;;;;;;;;;;4995493;28;20046;-62
2021/05/22 05:59:36;;;;;;;8.00;2.80;;;;;;;;;;5004230;28;20128;-62
2021/05/22 06:02:22;;;;;;;3.85;1.55;;;;;;;;;;5035551;28;20045;-64
2021/05/22 06:05:08;;;;;;;5.18;1.60;;;;;;;;;;5038874;28;20049;-63
2021/05/22 06:07:53;;;;;;;3.67;1.77;;;;;;;;;;5037994;28;20067;-63
2021/05/22 06:10:39;;;;;;;4.40;1.80;;;;;;;;;;5028354;28;20451;-64
2021/05/22 06:13:25;;;;;;;3.38;1.35;;;;;;;;;;5019294;28;20050;-63
2021/05/22 06:18:55;;;;;;;6.30;2.33;;;;;;;;;;5014659;28;20099;-63
2021/05/22 06:21:41;;;;;;;6.05;2.00;;;;;;;;;;5029577;28;20057;-63
2021/05/22 06:24:26;;;;;;;3.78;1.60;;;;;;;;;;5034428;28;20450;-62
2021/05/22 06:27:12;;;;;;;6.97;2.15;;;;;;;;;;5033246;28;20471;-63
2021/05/22 06:29:57;;;;;;;3.28;1.95;;;;;;;;;;5038233;28;20105;-64
2021/05/22 06:32:42;;;;;;;5.57;2.55;;;;;;;;;;4998375;28;20074;-64
2021/05/22 06:35:28;;;;;;;5.60;2.25;;;;;;;;;;4998073;28;20039;-63
2021/05/22 06:38:13;;;;;;;3.00;1.60;;;;;;;;;;4997397;28;20074;-64
2021/05/22 06:40:59;;;;;;;3.80;1.67;;;;;;;;;;5005726;28;20041;-64
2021/05/22 06:43:44;;;;;;;3.10;1.60;;;;;;;;;;5037466;28;20057;-63
2021/05/22 06:49:16;;;;;;;5.50;2.58;;;;;;;;;;5036900;28;20045;-62
2021/05/22 06:52:02;;;;;;;4.88;2.15;;;;;;;;;;5035433;28;20049;-64
2021/05/22 06:54:48;;;;;;;4.03;2.10;;;;;;;;;;5037745;28;20045;-65
2021/05/22 06:57:33;;;;;;;2.95;2.05;;;;;;;;;;5032145;28;20053;-65
2021/05/22 07:00:19;;;;;;;2.50;1.48;;;;;;;;;;5032750;28;20044;-64
2021/05/22 07:03:04;;;;;;;3.95;1.80;;;;;;;;;;5033810;28;20045;-64
2021/05/22 07:05:50;;;;;;;6.07;2.13;;;;;;;;;;5026593;28;20038;-64
2021/05/22 07:08:35;;;;;;;2.80;1.70;;;;;;;;;;5013081;28;20145;-64
2021/05/22 07:11:22;;;;;;;2.75;1.60;;;;;;;;;;5009989;28;20070;-63
2021/05/22 07:14:07;;;;;;;2.20;1.70;;;;;;;;;;5011986;28;20041;-64
2021/05/22 07:16:55;;;;;;;3.20;2.08;;;;;;;;;;5016091;28;20042;-63
2021/05/22 07:19:40;;;;;;;4.28;2.42;;;;;;;;;;5010653;28;20508;-63
2021/05/22 07:22:25;;;;;;;3.95;1.90;;;;;;;;;;5007652;28;20404;-62
2021/05/22 07:25:11;;;;;;;4.88;2.50;;;;;;;;;;5013328;28;20448;-63
2021/05/22 07:27:57;;;;;;;4.90;2.30;;;;;;;;;;5013356;28;20045;-63
2021/05/22 07:30:42;;;;;;;3.67;2.63;;;;;;;;;;5023219;28;20045;-62
2021/05/22 07:33:28;;;;;;;3.33;3.03;;;;;;;;;;5033082;28;20045;-63
2021/05/22 07:36:14;;;;;;;6.07;2.65;;;;;;;;;;5033122;28;20049;-61
2021/05/22 07:38:59;;;;;;;3.47;2.17;;;;;;;;;;5032977;28;20045;-63
2021/05/22 07:41:45;;;;;;;3.03;2.35;;;;;;;;;;5031158;28;20076;-62
2021/05/22 07:44:31;;;;;;;3.78;2.78;;;;;;;;;;5031307;28;20049;-63
2021/05/22 07:47:16;;;;;;;4.47;2.67;;;;;;;;;;5031479;28;20052;-62
2021/05/22 07:50:01;;;;;;;4.88;2.90;;;;;;;;;;5030890;28;20583;-63
2021/05/22 07:52:47;;;;;;;4.20;2.70;;;;;;;;;;5031017;28;20049;-64
2021/05/22 07:55:32;;;;;;;4.85;2.72;;;;;;;;;;5027070;28;20045;-64
2021/05/22 07:58:17;;;;;;;4.47;3.72;;;;;;;;;;5032544;28;20056;-63
2021/05/22 08:01:03;;;;;;;2.97;2.67;;;;;;;;;;5030649;28;20068;-63
2021/05/22 08:03:48;;;;;;;5.22;3.10;;;;;;;;;;5032464;28;20120;-63
2021/05/22 08:06:34;;;;;;;5.57;3.55;;;;;;;;;;5032359;28;20056;-63
2021/05/22 08:09:19;;;;;;;3.83;3.38;;;;;;;;;;5031963;28;20056;-63
2021/05/22 08:12:05;;;;;;;5.72;4.22;;;;;;;;;;4993079;28;20054;-63
2021/05/22 08:14:50;;;;;;;3.53;2.88;;;;;;;;;;4993067;28;20049;-63
2021/05/22 08:17:35;;;;;;;6.15;4.50;;;;;;;;;;4996061;28;20511;-63
2021/05/22 08:20:21;;;;;;;4.30;3.90;;;;;;;;;;4995550;28;20073;-63
2021/05/22 08:23:07;;;;;;;4.65;3.50;;;;;;;;;;5002005;28;20040;-64
2021/05/22 08:25:52;;;;;;;6.68;4.55;;;;;;;;;;5000571;28;20045;-62
2021/05/22 08:28:37;;;;;;;4.68;4.13;;;;;;;;;;5016152;28;20072;-64
2021/05/22 08:31:23;;;;;;;5.43;3.45;;;;;;;;;;5015744;28;20045;-64
2021/05/22 08:34:08;;;;;;;4.63;3.63;;;;;;;;;;5016593;28;20093;-63
2021/05/22 08:36:54;;;;;;;4.68;4.05;;;;;;;;;;5015302;28;20061;-63
2021/05/22 08:39:44;;;;;;;5.78;4.63;;;;;;;;;;5000326;28;20053;-65
2021/05/22 08:42:29;;;;;;;5.03;4.18;;;;;;;;;;5014053;28;20560;-64
2021/05/22 08:45:15;;;;;;;6.78;4.82;;;;;;;;;;5015458;28;20048;-63
2021/05/22 08:48:00;;;;;;;5.63;4.55;;;;;;;;;;5010744;28;20046;-64
2021/05/22 08:50:45;;;;;;;5.20;4.53;;;;;;;;;;5011153;28;20447;-64
2021/05/22 08:53:31;;;;;;;6.10;5.50;;;;;;;;;;5013149;28;20048;-63
2021/05/22 08:56:16;;;;;;;5.68;5.10;;;;;;;;;;5014339;28;20095;-63
2021/05/22 08:59:02;;;;;;;6.10;4.47;;;;;;;;;;5012142;28;20150;-64
2021/05/22 09:01:48;;;;;;;5.50;4.15;;;;;;;;;;5012970;28;20496;-64
2021/05/22 09:04:33;;;;;;;6.05;4.63;;;;;;;;;;5013021;28;20088;-64
2021/05/22 09:07:18;;;;;;;5.30;4.80;;;;;;;;;;5018519;28;20764;-64
2021/05/22 09:10:10;;;;;;;5.90;5.10;;;;;;;;;;5014145;28;20056;-65
2021/05/22 09:12:59;;;;;;;5.63;5.22;;;;;;;;;;5015188;28;20046;-65
2021/05/22 09:15:55;;;;;;;5.72;4.55;;;;;;;;;;5025965;28;20077;-64
2021/05/22 09:18:42;;;;;;;6.85;4.93;;;;;;;;;;5020167;28;20053;-64
2021/05/22 09:21:34;;;;;;;6.03;4.75;;;;;;;;;;5036238;28;20045;-65
2021/05/22 09:24:19;;;;;;;8.27;5.72;;;;;;;;;;5035057;28;20061;-63
2021/05/22 09:27:09;;;;;;;7.38;6.25;;;;;;;;;;5002379;28;20052;-64
2021/05/22 09:29:55;;;;;;;5.95;5.35;;;;;;;;;;5023577;28;20091;-64
2021/05/22 09:32:40;;;;;;;5.13;4.70;;;;;;;;;;5024724;28;20052;-64
2021/05/22 09:35:25;;;;;;;6.68;5.30;;;;;;;;;;5038765;28;20038;-63
2021/05/22 09:38:11;;;;;;;6.13;4.50;;;;;;;;;;5035239;28;20068;-63
2021/05/22 09:40:56;;;;;;;5.18;4.50;;;;;;;;;;5033224;28;20057;-63
2021/05/22 09:43:42;;;;;;;5.80;5.05;;;;;;;;;;5035314;28;20056;-63
2021/05/22 09:46:27;;;;;;;5.07;3.58;;;;;;;;;;5035003;28;20050;-63
2021/05/22 09:49:20;;;;;;;4.10;3.70;;;;;;;;;;5035001;28;20056;-63
2021/05/22 09:52:06;;;;;;;5.88;3.72;;;;;;;;;;5019460;28;20042;-63
2021/05/22 09:54:58;;;;;;;6.10;4.15;;;;;;;;;;5015092;28;20056;-63
2021/05/22 09:57:44;;;;;;;5.47;4.43;;;;;;;;;;5014978;28;20056;-63
2021/05/22 10:00:30;;;;;;;8.70;5.10;;;;;;;;;;5014978;28;20348;-62
2021/05/22 10:03:22;;;;;;;6.25;5.03;;;;;;;;;;5015125;28;20050;-62
2021/05/22 10:06:08;;;;;;;;;;;;;;;;;;5015200;28;20042;-62
2021/05/22 10:08:53;;;;;;;5.88;5.18;;;;;;;;;;5014966;28;19921;-63
2021/05/22 10:11:57;;;;;;;5.18;4.13;;;;;;;;;;5020984;28;20126;-64
2021/05/22 10:14:43;;;;;;;4.97;3.55;;;;;;;;;;5037764;28;20507;-65
2021/05/22 10:17:28;;;;;;;4.70;3.97;;;;;;;;;;5038626;28;20048;-64
2021/05/22 10:20:14;;;;;;;5.75;3.72;;;;;;;;;;5038385;28;20060;-65
2021/05/22 10:22:59;;;;;;;3.80;2.95;;;;;;;;;;5036702;28;20053;-64
2021/05/22 10:25:45;;;;;;;4.05;2.67;;;;;;;;;;5024238;28;20053;-63
2021/05/22 10:28:30;;;;;;;5.85;3.58;;;;;;;;;;5023536;28;20056;-64
2021/05/22 10:31:16;;;;;;;5.65;4.38;;;;;;;;;;5036873;28;20103;-64
2021/05/22 10:34:03;;;;;;;6.82;3.72;;;;;;;;;;5017472;28;20440;-64
2021/05/22 10:36:53;;;;;;;8.10;4.72;;;;;;;;;;5015464;28;20052;-63
2021/05/22 10:39:44;;;;;;;5.22;4.10;;;;;;;;;;5015557;28;20050;-63
2021/05/22 10:42:32;;;;;;;3.42;3.03;;;;;;;;;;5037206;28;20049;-63
2021/05/22 10:45:44;;;;;;;5.68;3.55;;;;;;;;;;5034709;28;20488;-65
2021/05/22 10:48:30;;;;;;;4.20;3.70;;;;;;;;;;5036773;28;20041;-64
2021/05/22 10:51:21;;;;;;;4.47;3.75;;;;;;;;;;5035448;28;20048;-63
2021/05/22 10:54:10;;;;;;;7.60;4.83;;;;;;;;;;5037082;28;20040;-64
2021/05/22 10:57:06;;;;;;;5.20;4.50;;;;;;;;;;5017345;28;20045;-64
2021/05/22 11:00:27;;;;;;;4.43;3.33;;;;;;;;;;5013096;28;20101;-64
2021/05/22 11:03:13;;;;;;;9.57;5.38;;;;;;;;;;4937675;29;20047;-65
2021/05/22 11:05:58;;;;;;;7.75;4.00;;;;;;;;;;5007881;28;20056;-63
2021/05/22 11:08:45;;;;;;;5.20;3.38;;;;;;;;;;5015061;28;20053;-64
2021/05/22 11:11:34;;;;;;;6.32;3.92;;;;;;;;;;5026334;28;20076;-64
2021/05/22 11:14:33;;;;;;;7.65;4.75;;;;;;;;;;5015969;28;20280;-64
2021/05/22 11:17:22;;;;;;;7.93;3.33;;;;;;;;;;4982713;28;20488;-64
2021/05/22 11:20:09;;;;;;;7.57;1.70;;;;;;;;;;4993723;28;20799;-64
2021/05/22 11:22:56;;;;;;;6.13;1.55;;;;;;;;;;5015607;28;20052;-64
2021/05/22 11:25:45;;;;;;;4.57;1.10;;;;;;;;;;5046394;23;20552;-64
2021/05/22 11:28:31;;;;;;;5.18;1.27;;;;;;;;;;4992338;28;20042;-64
2021/05/22 11:31:16;;;;;;;3.75;1.15;;;;;;;;;;4992540;28;20053;-64
2021/05/22 11:34:20;;;;;;;1.88;0.80;;;;;;;;;;4990855;28;20161;-63
2021/05/22 11:37:25;;;;;;;2.55;0.80;;;;;;;;;;5013105;28;20124;-64
2021/05/22 11:40:11;;;;;;;2.95;1.10;;;;;;;;;;5012944;28;20455;-63
2021/05/22 11:42:58;;;;;;;3.42;1.33;;;;;;;;;;4996709;28;20499;-63
2021/05/22 11:45:43;;;;;;;3.45;1.20;;;;;;;;;;4999982;28;20439;-63
2021/05/22 11:48:43;;;;;;;2.90;1.38;;;;;;;;;;4988797;28;20137;-63
2021/05/22 11:51:32;;;;;;;3.72;1.00;;;;;;;;;;4992691;28;20071;-63
2021/05/22 11:54:20;;;;;;;2.78;1.10;;;;;;;;;;4993185;28;20046;-64
2021/05/22 11:57:17;;;;;;;4.53;1.52;;;;;;;;;;5012859;28;20061;-64
2021/05/22 12:00:02;;;;;;;4.18;1.17;;;;;;;;;;5012147;28;20052;-64
2021/05/22 12:02:57;;;;;;;6.13;1.23;;;;;;;;;;4999315;28;20052;-63
2021/05/22 12:05:44;;;;;;;5.22;1.63;;;;;;;;;;5011126;28;20056;-64
2021/05/22 12:08:31;;;;;;;3.05;1.15;;;;;;;;;;4997886;28;20045;-63
2021/05/22 12:11:17;;;;;;;5.45;1.83;;;;;;;;;;5003582;28;20053;-64
2021/05/22 12:14:04;;;;;;;4.55;1.48;;;;;;;;;;4990050;28;20057;-63
2021/05/22 12:16:59;;;;;;;3.65;1.50;;;;;;;;;;4990744;28;20041;-63
2021/05/22 12:19:45;;;;;;;4.28;1.52;;;;;;;;;;4985902;28;20047;-63
2021/05/22 12:22:31;;;;;;;3.92;1.40;;;;;;;;;;4991393;28;20050;-64
2021/05/22 12:25:17;;;;;;;3.40;1.33;;;;;;;;;;4993813;28;20144;-64
2021/05/22 12:28:02;;;;;;;4.85;1.70;;;;;;;;;;4998173;28;20035;-64
2021/05/22 12:30:48;;;;;;;6.10;1.83;;;;;;;;;;5008537;28;20053;-64
2021/05/22 12:33:33;;;;;;;3.80;1.50;;;;;;;;;;4993059;28;20049;-63
2021/05/22 12:36:19;;;;;;;3.15;1.58;;;;;;;;;;4988639;28;20057;-64
2021/05/22 12:39:13;;;;;;;3.20;1.15;;;;;;;;;;4993884;28;20057;-63
2021/05/22 12:41:59;;;;;;;4.82;1.70;;;;;;;;;;4979260;28;20038;-64
2021/05/22 12:44:45;;;;;;;6.00;1.50;;;;;;;;;;4992625;28;20133;-65
2021/05/22 12:47:37;;;;;;;2.55;1.80;;;;;;;;;;4998451;28;20053;-64
2021/05/22 12:50:26;;;;;;;3.28;1.48;;;;;;;;;;5000513;28;20069;-64
2021/05/22 12:53:11;;;;;;;4.80;1.50;;;;;;;;;;4992276;28;20449;-63
2021/05/22 12:56:03;;;;;;;6.53;1.70;;;;;;;;;;4987162;28;20042;-64
2021/05/22 12:58:51;;;;;;;5.65;1.60;;;;;;;;;;4992144;28;20054;-64
2021/05/22 13:01:36;;;;;;;4.60;1.40;;;;;;;;;;4992235;28;20061;-64
2021/05/22 13:04:28;;;;;;;3.00;1.42;;;;;;;;;;4980070;28;20141;-64
2021/05/22 13:07:13;;;;;;;2.60;1.35;;;;;;;;;;4987876;28;20042;-63
2021/05/22 13:10:01;;;;;;;1.83;1.05;;;;;;;;;;4997076;28;20042;-64
2021/05/22 13:12:53;;;;;;;2.30;1.50;;;;;;;;;;4996400;28;20057;-64
2021/05/22 13:15:39;;;;;;;4.90;2.00;;;;;;;;;;4968167;28;20046;-63
2021/05/22 13:18:25;;;;;;;4.10;2.33;;;;;;;;;;4995998;28;20053;-63
2021/05/22 13:21:11;;;;;;;3.72;1.88;;;;;;;;;;4995658;28;20058;-64
2021/05/22 13:23:56;;;;;;;3.63;1.70;;;;;;;;;;5001699;28;20045;-64
2021/05/22 13:26:42;;;;;;;6.65;2.40;;;;;;;;;;4995547;28;20415;-64
2021/05/22 13:29:28;;;;;;;3.63;2.60;;;;;;;;;;4998056;28;20033;-64
2021/05/22 13:32:16;;;;;;;8.00;3.40;;;;;;;;;;4995611;28;20053;-64
2021/05/22 13:35:01;;;;;;;5.25;2.38;;;;;;;;;;4995781;28;20105;-64
2021/05/22 13:37:47;;;;;;;7.78;3.03;;;;;;;;;;5007570;28;20074;-64
2021/05/22 13:40:33;;;;;;;6.57;3.20;;;;;;;;;;5002100;28;20512;-64
2021/05/22 13:43:19;;;;;;;6.50;2.63;;;;;;;;;;4993204;28;20046;-64
2021/05/22 13:46:04;;;;;;;6.72;3.15;;;;;;;;;;4995473;28;20053;-64
2021/05/22 13:48:49;;;;;;;9.15;2.58;;;;;;;;;;4996746;28;20161;-63
2021/05/22 13:51:35;;;;;;;11.32;3.42;;;;;;;;;;4995164;28;20443;-64
2021/05/22 13:54:20;;;;;;;11.90;3.92;;;;;;;;;;4996384;28;20049;-63
2021/05/22 13:57:06;;;;;;;9.30;3.55;;;;;;;;;;4995049;28;20054;-63
2021/05/22 13:59:51;;;;;;;8.93;4.20;;;;;;;;;;4986536;28;20113;-64
2021/05/22 14:02:36;;;;;;;14.88;4.28;;;;;;;;;;4995215;28;20137;-63
2021/05/22 14:05:22;;;;;;;11.57;3.92;;;;;;;;;;4994833;28;20058;-63
2021/05/22 14:08:07;;;;;;;10.25;3.25;;;;;;;;;;5006367;28;20113;-63
2021/05/22 14:10:52;;;;;;;7.32;2.67;;;;;;;;;;4994806;28;20056;-64
2021/05/22 14:13:38;;;;;;;8.18;2.88;;;;;;;;;;4998981;28;20053;-63
2021/05/22 14:16:23;;;;;;;8.85;2.90;;;;;;;;;;4994936;28;20053;-63
2021/05/22 14:19:09;;;;;;;7.03;2.85;;;;;;;;;;4994902;28;20109;-63
2021/05/22 14:21:54;;;;;;;9.23;3.35;;;;;;;;;;4995063;28;20052;-63
2021/05/22 14:24:40;;;;;;;8.98;2.95;;;;;;;;;;4994905;28;20061;-63
2021/05/22 14:27:25;;;;;;;13.45;3.50;;;;;;;;;;4994829;28;20049;-63
2021/05/22 14:30:11;;;;;;;10.68;3.53;;;;;;;;;;4994509;28;20057;-63
2021/05/22 14:32:56;;;;;;;9.77;3.30;;;;;;;;;;4999120;28;20045;-63
2021/05/22 14:35:42;;;;;;;7.72;2.85;;;;;;;;;;5014275;28;20104;-63
2021/05/22 14:38:27;;;;;;;10.20;3.38;;;;;;;;;;5014084;28;20062;-63
2021/05/22 14:41:13;;;;;;;11.05;2.88;;;;;;;;;;5013867;28;20116;-63
2021/05/22 14:43:59;;;;;;;6.78;2.65;;;;;;;;;;4999029;28;20037;-64
2021/05/22 14:46:44;;;;;;;13.50;2.67;;;;;;;;;;5002535;28;20068;-63
2021/05/22 14:49:32;;;;;;;10.38;3.15;;;;;;;;;;4994044;28;20057;-64
2021/05/22 14:52:17;;;;;;;11.38;3.00;;;;;;;;;;4994554;28;20180;-64
2021/05/22 14:55:03;;;;;;;12.27;3.03;;;;;;;;;;4995348;28;20046;-64
2021/05/22 14:57:48;;;;;;;7.72;1.83;;;;;;;;;;4991216;28;20133;-63
2021/05/22 15:00:34;;;;;;;8.35;2.17;;;;;;;;;;4972467;28;20113;-63
2021/05/22 15:03:19;;;;;;;7.82;2.40;;;;;;;;;;4991354;28;20057;-63
2021/05/22 15:06:04;;;;;;;11.52;2.15;;;;;;;;;;4993354;28;20520;-63
2021/05/22 15:08:50;;;;;;;8.55;1.88;;;;;;;;;;4992583;28;20113;-63
2021/05/22 15:11:36;;;;;;;9.05;2.22;;;;;;;;;;4990813;28;20428;-63
2021/05/22 15:14:21;;;;;;;5.82;1.60;;;;;;;;;;4986241;28;20049;-63
2021/05/22 15:17:06;;;;;;;9.57;2.35;;;;;;;;;;4991615;28;20124;-64
2021/05/22 15:19:52;;;;;;;7.93;1.80;;;;;;;;;;4989926;28;20054;-63
2021/05/22 15:22:37;;;;;;;10.63;1.98;;;;;;;;;;4995976;28;20108;-63
2021/05/22 15:25:23;;;;;;;10.60;2.30;;;;;;;;;;4994694;28;20063;-63
2021/05/22 15:28:09;;;;;;;8.52;2.45;;;;;;;;;;4993548;28;20045;-63
2021/05/22 15:30:54;;;;;;;7.15;1.42;;;;;;;;;;4994419;28;20404;-63
2021/05/22 15:33:40;;;;;;;8.00;2.08;;;;;;;;;;4993693;28;20054;-63
2021/05/22 15:36:26;;;;;;;7.10;2.15;;;;;;;;;;4993283;28;20507;-63
2021/05/22 15:39:12;;;;;;;5.53;1.88;;;;;;;;;;4994661;28;20102;-63
2021/05/22 15:41:58;;;;;;;4.75;1.35;;;;;;;;;;4993679;28;20064;-63
2021/05/22 15:44:45;;;;;;;5.82;1.80;;;;;;;;;;4993465;28;20552;-63
2021/05/22 15:59:35;;;;;;;5.35;1.90;;;;;;;;;;4995698;28;20050;-63
2021/05/22 16:05:48;;;;;;;10.52;2.30;;;;;;;;;;4923057;29;20084;-63
2021/05/22 16:08:33;;;;;;;6.32;2.60;;;;;;;;;;4913722;29;20055;-63
2021/05/22 16:11:19;;;;;;;5.72;1.63;;;;;;;;;;4983945;28;20050;-63
2021/05/22 16:14:04;;;;;;;7.53;1.70;;;;;;;;;;4993045;28;20057;-63
2021/05/22 16:16:50;;;;;;;9.25;3.05;;;;;;;;;;4983691;28;20125;-63
2021/05/22 16:19:35;;;;;;;7.15;1.70;;;;;;;;;;4990547;28;20052;-63
2021/05/22 16:22:20;;;;;;;6.53;2.08;;;;;;;;;;4998310;28;20405;-63
2021/05/22 16:25:06;;;;;;;8.88;2.38;;;;;;;;;;4983619;28;20056;-63
2021/05/22 16:27:52;;;;;;;6.20;2.28;;;;;;;;;;4990354;28;20061;-63
2021/05/22 16:30:38;;;;;;;8.57;2.38;;;;;;;;;;4991860;28;20046;-63
2021/05/22 16:33:24;;;;;;;8.57;2.08;;;;;;;;;;4989808;28;20052;-63
2021/05/22 16:36:09;;;;;;;9.27;2.17;;;;;;;;;;4998445;28;20096;-63
2021/05/22 16:38:54;;;;;;;8.05;3.20;;;;;;;;;;4989190;28;20057;-63
2021/05/22 16:41:40;;;;;;;7.05;2.15;;;;;;;;;;4970729;28;20114;-63
2021/05/22 16:44:25;;;;;;;5.07;2.28;;;;;;;;;;4970110;28;20425;-63
2021/05/22 16:47:11;;;;;;;7.00;1.75;;;;;;;;;;4970483;28;20051;-63
2021/05/22 16:49:56;;;;;;;9.05;2.60;;;;;;;;;;4981847;28;20053;-63
2021/05/22 16:52:41;;;;;;;5.43;1.80;;;;;;;;;;4996936;28;20096;-63
2021/05/22 16:55:27;;;;;;;5.65;1.58;;;;;;;;;;4995957;28;20049;-63
2021/05/22 16:58:12;;;;;;;6.43;1.77;;;;;;;;;;5008089;28;20068;-63